createdAt,value
2022-10-17T00:00:48.896Z,7.57
2022-10-17T00:03:15.980Z,5.40
2022-10-17T00:05:45.691Z,12.27
2022-10-17T00:08:14.675Z,6.85
2022-10-17T00:10:41.867Z,9.63
2022-10-17T00:13:12.079Z,6.78
2022-10-17T00:15:38.995Z,8.80
2022-10-17T00:18:05.856Z,8.40
2022-10-17T00:20:35.727Z,6.82
2022-10-17T00:23:02.530Z,8.93
2022-10-17T00:25:29.367Z,10.02
2022-10-17T00:27:56.309Z,8.57
2022-10-17T00:30:23.251Z,12.18
2022-10-17T00:32:50.151Z,9.00
2022-10-17T00:35:17.114Z,10.30
2022-10-17T00:37:43.851Z,6.85
2022-10-17T00:40:11.227Z,7.85
2022-10-17T00:42:38.172Z,7.85
2022-10-17T00:45:16.295Z,9.50
2022-10-17T00:47:46.503Z,9.65
2022-10-17T00:50:15.011Z,8.05
2022-10-17T00:52:42.407Z,6.03
2022-10-17T00:55:15.078Z,7.97
2022-10-17T00:57:42.503Z,7.80
2022-10-17T01:00:10.934Z,6.13
2022-10-17T01:02:38.327Z,8.02
2022-10-17T01:05:06.547Z,10.63
2022-10-17T01:07:37.126Z,9.50
2022-10-17T01:10:05.735Z,10.20
2022-10-17T01:13:04.844Z,6.22
2022-10-17T01:15:46.681Z,7.75
2022-10-17T01:18:24.723Z,9.82
2022-10-17T01:20:51.455Z,7.20
2022-10-17T01:23:36.322Z,9.20
2022-10-17T01:26:20.817Z,11.43
2022-10-17T01:28:50.368Z,6.82
2022-10-17T01:31:23.532Z,8.65
2022-10-17T01:33:59.156Z,9.73
2022-10-17T01:36:53.269Z,8.55
2022-10-17T01:39:43.893Z,9.48
2022-10-17T01:42:34.116Z,12.43
2022-10-17T01:45:09.337Z,9.55
2022-10-17T01:47:36.456Z,8.02
2022-10-17T01:50:18.405Z,8.90
2022-10-17T01:52:59.077Z,10.00
2022-10-17T01:55:33.426Z,12.32
2022-10-17T01:58:15.007Z,11.00
2022-10-17T02:00:43.560Z,10.80
2022-10-17T02:03:15.646Z,9.65
2022-10-17T02:05:43.990Z,8.60
2022-10-17T02:08:11.798Z,10.77
2022-10-17T02:10:57.735Z,8.35
2022-10-17T02:13:46.086Z,10.57
2022-10-17T02:16:48.222Z,11.00
2022-10-17T02:19:39.446Z,10.23
2022-10-17T02:22:09.392Z,8.10
2022-10-17T02:24:52.404Z,10.32
2022-10-17T02:27:50.443Z,11.48
2022-10-17T02:30:53.037Z,8.77
2022-10-17T02:33:28.898Z,11.50
2022-10-17T02:36:00.487Z,11.15
2022-10-17T02:38:32.388Z,8.80
2022-10-17T02:41:01.756Z,11.10
2022-10-17T02:45:58.149Z,10.82
2022-10-17T02:48:24.967Z,8.52
2022-10-17T02:51:25.276Z,9.50
2022-10-17T02:54:13.399Z,10.43
2022-10-17T02:56:46.246Z,8.98
2022-10-17T02:59:16.947Z,8.90
2022-10-17T03:01:44.439Z,7.38
2022-10-17T03:04:14.191Z,10.80
2022-10-17T03:06:41.404Z,10.07
2022-10-17T03:09:08.390Z,14.70
2022-10-17T03:11:35.450Z,12.75
2022-10-17T03:14:02.329Z,8.82
2022-10-17T03:16:29.307Z,13.70
2022-10-17T03:18:56.481Z,9.68
2022-10-17T03:21:23.381Z,10.45
2022-10-17T03:23:50.268Z,6.82
2022-10-17T03:26:17.073Z,9.50
2022-10-17T03:28:44.019Z,7.30
2022-10-17T03:31:14.972Z,8.95
2022-10-17T03:33:41.813Z,11.02
2022-10-17T03:36:10.770Z,11.40
2022-10-17T03:38:37.653Z,10.20
2022-10-17T03:41:05.614Z,9.05
2022-10-17T03:43:32.489Z,13.02
2022-10-17T03:46:00.559Z,10.15
2022-10-17T03:48:29.390Z,12.25
2022-10-17T03:51:01.662Z,10.02
2022-10-17T03:53:28.875Z,11.13
2022-10-17T03:55:56.018Z,11.98
2022-10-17T03:58:22.944Z,12.15
2022-10-17T04:00:49.735Z,11.20
2022-10-17T04:03:17.297Z,12.52
2022-10-17T04:05:44.335Z,14.63
2022-10-17T04:08:11.131Z,10.30
2022-10-17T04:10:38.022Z,9.65
2022-10-17T04:13:06.419Z,10.38
2022-10-17T04:15:33.317Z,17.42
2022-10-17T04:18:00.194Z,11.48
2022-10-17T04:20:27.158Z,10.77
2022-10-17T04:22:56.761Z,9.98
2022-10-17T04:25:23.558Z,17.98
2022-10-17T04:27:50.366Z,13.25
2022-10-17T04:30:17.764Z,14.65
2022-10-17T04:32:44.595Z,11.40
2022-10-17T04:35:11.527Z,16.33
2022-10-17T04:37:38.459Z,19.88
2022-10-17T04:40:05.829Z,12.65
2022-10-17T04:42:32.879Z,15.43
2022-10-17T04:44:59.756Z,15.27
2022-10-17T04:47:26.837Z,14.50
2022-10-17T04:49:53.768Z,10.40
2022-10-17T04:52:20.698Z,19.00
2022-10-17T04:54:47.464Z,16.17
2022-10-17T04:57:14.593Z,21.98
2022-10-17T04:59:41.361Z,11.48
2022-10-17T05:02:08.335Z,16.50
2022-10-17T05:04:35.102Z,11.13
2022-10-17T05:07:02.177Z,17.08
2022-10-17T05:09:29.976Z,13.88
2022-10-17T05:11:56.854Z,13.48
2022-10-17T05:14:23.712Z,9.82
2022-10-17T05:16:50.527Z,18.42
2022-10-17T05:19:18.434Z,9.32
2022-10-17T05:21:45.245Z,11.05
2022-10-17T05:24:14.289Z,14.60
2022-10-17T05:26:41.228Z,10.90
2022-10-17T05:29:08.161Z,18.55
2022-10-17T05:31:35.073Z,9.77
2022-10-17T05:34:07.072Z,15.55
2022-10-17T05:36:35.907Z,8.63
2022-10-17T05:39:02.795Z,12.32
2022-10-17T05:41:29.651Z,11.60
2022-10-17T05:43:57.817Z,10.68
2022-10-17T05:46:26.366Z,16.77
2022-10-17T05:48:55.589Z,15.57
2022-10-17T05:51:22.485Z,13.45
2022-10-17T05:53:49.326Z,10.13
2022-10-17T05:56:16.226Z,16.45
2022-10-17T05:58:50.312Z,20.25
2022-10-17T06:01:18.432Z,12.30
2022-10-17T06:03:45.304Z,15.05
2022-10-17T06:06:13.852Z,14.02
2022-10-17T06:08:40.901Z,15.77
2022-10-17T06:11:10.123Z,12.45
2022-10-17T06:13:38.299Z,16.13
2022-10-17T06:16:05.826Z,12.27
2022-10-17T06:18:32.742Z,15.93
2022-10-17T06:21:08.592Z,13.75
2022-10-17T06:23:35.536Z,10.90
2022-10-17T06:26:03.497Z,17.67
2022-10-17T06:28:31.249Z,11.88
2022-10-17T06:30:58.243Z,11.82
2022-10-17T06:33:25.444Z,13.48
2022-10-17T06:35:56.216Z,13.95
2022-10-17T06:38:23.760Z,9.18
2022-10-17T06:40:50.700Z,15.05
2022-10-17T06:43:17.620Z,11.20
2022-10-17T06:45:47.420Z,17.90
2022-10-17T06:48:14.840Z,12.50
2022-10-17T06:50:41.714Z,10.10
2022-10-17T06:53:08.524Z,11.38
2022-10-17T06:55:35.362Z,10.07
2022-10-17T06:58:02.202Z,12.38
2022-10-17T07:00:29.234Z,10.73
2022-10-17T07:02:56.136Z,10.32
2022-10-17T07:05:23.035Z,17.38
2022-10-17T07:07:51.740Z,9.95
2022-10-17T07:10:19.074Z,12.90
2022-10-17T07:12:46.074Z,10.93
2022-10-17T07:15:13.148Z,11.40
2022-10-17T07:17:40.171Z,13.23
2022-10-17T07:20:07.650Z,9.27
2022-10-17T07:22:34.533Z,8.27
2022-10-17T07:25:01.389Z,15.38
2022-10-17T07:27:28.715Z,9.68
2022-10-17T07:29:55.808Z,14.68
2022-10-17T07:32:22.719Z,14.00
2022-10-17T07:34:49.724Z,11.15
2022-10-17T07:37:16.710Z,12.82
2022-10-17T07:39:43.540Z,11.90
2022-10-17T07:42:10.529Z,10.38
2022-10-17T07:44:37.449Z,10.15
2022-10-17T07:47:04.373Z,11.68
2022-10-17T07:49:31.657Z,12.63
2022-10-17T07:51:58.535Z,11.52
2022-10-17T07:54:25.608Z,10.75
2022-10-17T07:56:52.587Z,18.00
2022-10-17T07:59:19.780Z,14.45
2022-10-17T08:01:46.704Z,11.45
2022-10-17T08:04:13.551Z,10.40
2022-10-17T08:06:40.319Z,10.25
2022-10-17T08:09:07.182Z,12.45
2022-10-17T08:11:35.928Z,11.80
2022-10-17T08:14:02.933Z,10.90
2022-10-17T08:16:29.843Z,11.98
2022-10-17T08:18:56.759Z,12.77
2022-10-17T08:21:23.628Z,12.73
2022-10-17T08:23:50.555Z,10.57
2022-10-17T08:26:20.266Z,10.35
2022-10-17T08:28:48.092Z,10.70
2022-10-17T08:31:20.252Z,11.70
2022-10-17T08:33:48.301Z,10.20
2022-10-17T08:36:17.688Z,9.75
2022-10-17T08:38:46.146Z,10.20
2022-10-17T08:41:41.484Z,10.00
2022-10-17T08:44:22.031Z,8.85
2022-10-17T08:46:53.358Z,7.70
2022-10-17T08:49:29.839Z,8.02
2022-10-17T08:52:04.416Z,10.18
2022-10-17T08:54:50.323Z,9.13
2022-10-17T08:57:17.944Z,9.25
2022-10-17T08:59:50.460Z,8.93
2022-10-17T09:02:48.884Z,11.43
2022-10-17T09:05:39.291Z,10.95
2022-10-17T09:08:29.433Z,9.75
2022-10-17T09:11:07.259Z,9.40
2022-10-17T09:13:46.306Z,10.63
2022-10-17T09:16:31.893Z,10.27
2022-10-17T09:19:11.782Z,8.68
2022-10-17T09:21:47.206Z,13.05
2022-10-17T09:24:27.884Z,9.75
2022-10-17T09:26:55.794Z,9.25
2022-10-17T09:29:27.695Z,10.60
2022-10-17T09:32:03.473Z,8.82
2022-10-17T09:34:32.557Z,10.50
2022-10-17T09:37:00.986Z,10.60
2022-10-17T09:39:32.069Z,9.20
2022-10-17T09:42:03.182Z,12.73
2022-10-17T09:44:33.304Z,11.02
2022-10-17T09:47:00.185Z,11.27
2022-10-17T09:49:33.185Z,9.00
2022-10-17T09:52:03.613Z,11.75
2022-10-17T09:54:42.198Z,7.43
2022-10-17T09:57:11.388Z,11.23
2022-10-17T09:59:41.668Z,8.85
2022-10-17T10:02:20.841Z,8.68
2022-10-17T10:05:17.949Z,11.87
2022-10-17T10:08:01.604Z,9.32
2022-10-17T10:10:30.428Z,10.63
2022-10-17T10:13:05.297Z,14.90
2022-10-17T10:15:33.938Z,14.05
2022-10-17T10:18:01.094Z,11.98
2022-10-17T10:20:37.939Z,18.27
2022-10-17T10:23:19.515Z,15.40
2022-10-17T10:25:58.232Z,14.38
2022-10-17T10:28:32.220Z,13.73
2022-10-17T10:31:08.479Z,18.67
2022-10-17T10:33:41.737Z,17.00
2022-10-17T10:36:09.166Z,16.38
2022-10-17T10:38:39.462Z,16.20
2022-10-17T10:41:08.945Z,20.95
2022-10-17T10:43:45.334Z,16.60
2022-10-17T10:46:27.319Z,15.23
2022-10-17T10:48:58.667Z,16.63
2022-10-17T10:51:46.037Z,17.77
2022-10-17T10:54:41.596Z,17.90
2022-10-17T10:57:19.909Z,21.20
2022-10-17T11:00:17.303Z,21.58
2022-10-17T11:02:57.900Z,13.90
2022-10-17T11:05:40.243Z,13.45
2022-10-17T11:08:23.871Z,16.15
2022-10-17T11:11:03.694Z,13.68
2022-10-17T11:13:46.454Z,12.60
2022-10-17T11:16:29.347Z,10.95
2022-10-17T11:19:08.270Z,16.50
2022-10-17T11:21:59.569Z,15.23
2022-10-17T11:24:37.188Z,12.75
2022-10-17T11:27:06.434Z,14.57
2022-10-17T11:29:36.300Z,15.90
2022-10-17T11:32:35.059Z,15.63
2022-10-17T11:35:08.165Z,16.38
2022-10-17T11:37:41.041Z,13.90
2022-10-17T11:40:37.770Z,13.57
2022-10-17T11:43:27.066Z,12.50
2022-10-17T11:45:59.690Z,13.48
2022-10-17T11:48:41.026Z,11.73
2022-10-17T11:54:10.196Z,12.27
2022-10-17T11:56:41.859Z,11.43
2022-10-17T11:59:41.377Z,11.07
2022-10-17T12:02:32.783Z,10.63
2022-10-17T12:05:22.928Z,11.88
2022-10-17T12:08:17.669Z,10.88
2022-10-17T12:10:47.302Z,9.18
2022-10-17T12:13:41.920Z,11.95
2022-10-17T12:16:21.042Z,9.95
2022-10-17T12:19:09.350Z,12.98
2022-10-17T12:21:57.186Z,9.63
2022-10-17T12:25:00.790Z,9.90
2022-10-17T12:27:43.451Z,9.50
2022-10-17T12:30:16.635Z,8.57
2022-10-17T12:33:07.444Z,10.23
2022-10-17T12:35:36.637Z,8.88
2022-10-17T12:38:17.052Z,9.40
2022-10-17T12:40:48.447Z,9.80
2022-10-17T12:43:15.677Z,10.70
2022-10-17T12:45:59.920Z,8.85
2022-10-17T12:48:41.760Z,8.95
2022-10-17T12:51:35.437Z,13.30
2022-10-17T12:54:16.375Z,10.82
2022-10-17T12:59:30.439Z,10.20
2022-10-17T13:02:01.807Z,8.30
2022-10-17T13:04:36.302Z,8.77
2022-10-17T13:07:04.010Z,8.55
2022-10-17T13:09:35.355Z,10.45
2022-10-17T13:12:06.998Z,7.38
2022-10-17T13:14:34.880Z,9.77
2022-10-17T13:17:07.529Z,9.38
2022-10-17T13:19:46.164Z,8.45
2022-10-17T13:22:33.885Z,9.32
2022-10-17T13:25:16.807Z,7.40
2022-10-17T13:27:43.840Z,8.00
2022-10-17T13:30:32.271Z,7.50
2022-10-17T13:33:00.640Z,9.77
2022-10-17T13:35:55.728Z,9.43
2022-10-17T13:38:29.641Z,9.98
2022-10-17T13:41:01.955Z,9.20
2022-10-17T13:43:33.251Z,8.82
2022-10-17T13:46:25.334Z,11.60
2022-10-17T13:48:53.360Z,8.70
2022-10-17T13:51:20.488Z,7.30
2022-10-17T13:53:47.435Z,8.98
2022-10-17T13:56:28.428Z,9.15
2022-10-17T13:59:17.600Z,8.20
2022-10-17T14:01:44.860Z,8.85
2022-10-17T14:04:19.459Z,7.80
2022-10-17T14:06:51.258Z,8.05
2022-10-17T14:09:24.882Z,7.85
2022-10-17T14:12:19.217Z,7.20
2022-10-17T14:15:09.880Z,8.20
2022-10-17T14:17:38.633Z,11.20
2022-10-17T14:20:40.810Z,9.65
2022-10-17T14:23:21.480Z,10.23
2022-10-17T14:25:43.777Z,8.02
2022-10-17T14:28:15.834Z,8.05
2022-10-17T14:30:57.517Z,6.72
2022-10-17T14:33:29.292Z,9.35
2022-10-17T14:35:58.887Z,8.02
2022-10-17T14:38:27.848Z,10.02
2022-10-17T14:41:09.800Z,6.90
2022-10-17T14:43:42.634Z,6.10
2022-10-17T14:46:15.659Z,5.60
2022-10-17T14:48:43.477Z,6.28
2022-10-17T14:51:18.709Z,6.20
2022-10-17T14:54:05.200Z,6.05
2022-10-17T14:56:43.240Z,6.47
2022-10-17T14:59:12.636Z,5.93
2022-10-17T15:01:42.561Z,5.72
2022-10-17T15:04:10.899Z,6.68
2022-10-17T15:06:37.739Z,6.93
2022-10-17T15:09:04.673Z,6.00
2022-10-17T15:11:31.803Z,6.07
2022-10-17T15:13:59.700Z,5.65
2022-10-17T15:16:30.963Z,3.45
2022-10-17T15:18:57.882Z,6.93
2022-10-17T15:21:39.306Z,4.50
2022-10-17T15:24:07.531Z,3.78
2022-10-17T15:26:34.923Z,4.13
2022-10-17T15:29:02.289Z,5.40
2022-10-17T15:31:31.310Z,3.88
2022-10-17T15:33:58.130Z,5.35
2022-10-17T15:36:40.009Z,4.05
2022-10-17T15:39:07.212Z,3.90
2022-10-17T15:41:34.224Z,3.47
2022-10-17T15:44:01.495Z,3.92
2022-10-17T15:46:32.659Z,3.80
2022-10-17T15:49:04.203Z,4.03
2022-10-17T15:51:31.086Z,3.33
2022-10-17T15:54:01.596Z,4.10
2022-10-17T15:56:38.026Z,3.35
2022-10-17T15:59:13.607Z,4.10
2022-10-17T16:01:41.500Z,5.75
2022-10-17T16:04:13.105Z,4.63
2022-10-17T16:06:39.933Z,3.95
2022-10-17T16:09:06.822Z,3.85
2022-10-17T16:11:35.430Z,4.43
2022-10-17T16:14:05.229Z,4.72
2022-10-17T16:16:33.540Z,4.75
2022-10-17T16:19:01.413Z,5.90
2022-10-17T16:21:32.742Z,7.75
2022-10-17T16:24:00.613Z,5.43
2022-10-17T16:26:28.512Z,4.35
2022-10-17T16:28:57.432Z,6.35
2022-10-17T16:31:29.257Z,4.20
2022-10-17T16:33:57.648Z,5.32
2022-10-17T16:36:24.884Z,4.00
2022-10-17T16:38:53.927Z,6.10
2022-10-17T16:41:33.389Z,4.45
2022-10-17T16:44:02.451Z,4.28
2022-10-17T16:46:31.152Z,4.65
2022-10-17T16:48:58.572Z,5.57
2022-10-17T16:51:25.775Z,6.75
2022-10-17T16:53:54.596Z,5.78
2022-10-17T16:56:23.909Z,4.35
2022-10-17T17:01:20.752Z,4.55
2022-10-17T17:06:19.126Z,5.78
2022-10-17T17:08:46.358Z,7.18
2022-10-17T17:11:17.064Z,7.93
2022-10-17T17:13:44.017Z,5.80
2022-10-17T17:16:14.221Z,7.50
2022-10-17T17:18:41.909Z,9.05
2022-10-17T17:21:10.379Z,6.72
2022-10-17T17:23:39.517Z,9.37
2022-10-17T17:26:11.772Z,7.75
2022-10-17T17:28:39.788Z,6.80
2022-10-17T17:31:12.151Z,5.82
2022-10-17T17:33:40.445Z,5.45
2022-10-17T17:36:08.277Z,8.27
2022-10-17T17:38:36.416Z,7.20
2022-10-17T17:41:04.630Z,8.50
2022-10-17T17:43:31.529Z,6.45
2022-10-17T17:46:01.762Z,8.43
2022-10-17T17:48:28.717Z,5.38
2022-10-17T17:50:55.563Z,7.68
2022-10-17T17:53:22.771Z,4.60
2022-10-17T17:56:01.415Z,4.32
2022-10-17T17:58:28.438Z,5.60
2022-10-17T18:00:55.330Z,5.13
2022-10-17T18:03:22.228Z,9.15
2022-10-17T18:05:49.022Z,11.63
2022-10-17T18:08:15.969Z,4.78
2022-10-17T18:10:48.349Z,7.03
2022-10-17T18:13:15.474Z,6.68
2022-10-17T18:15:43.673Z,6.75
2022-10-17T18:18:10.702Z,6.00
2022-10-17T18:20:42.172Z,8.90
2022-10-17T18:23:10.485Z,9.35
2022-10-17T18:25:37.576Z,6.88
2022-10-17T18:28:04.942Z,8.98
2022-10-17T18:30:34.446Z,12.98
2022-10-17T18:33:01.454Z,8.82
2022-10-17T18:35:28.469Z,6.18
2022-10-17T18:37:57.018Z,18.98
2022-10-17T18:40:23.834Z,14.45
2022-10-17T18:42:50.707Z,5.68
2022-10-17T18:45:17.583Z,15.15
2022-10-17T18:47:47.184Z,16.92
2022-10-17T18:50:14.997Z,14.00
2022-10-17T18:52:41.830Z,22.90
2022-10-17T18:55:09.197Z,12.50
2022-10-17T18:57:36.193Z,21.17
2022-10-17T19:00:04.268Z,22.75
2022-10-17T19:02:34.385Z,10.90
2022-10-17T19:05:04.289Z,27.55
2022-10-17T19:07:31.246Z,27.88
2022-10-17T19:09:58.287Z,14.35
2022-10-17T19:12:25.219Z,27.77
2022-10-17T19:14:53.129Z,13.75
2022-10-17T19:17:19.942Z,29.05
2022-10-17T19:19:50.227Z,20.83
2022-10-17T19:22:17.106Z,19.23
2022-10-17T19:24:44.001Z,31.52
2022-10-17T19:27:12.242Z,39.75
2022-10-17T19:29:43.590Z,31.85
2022-10-17T19:32:15.665Z,40.25
2022-10-17T19:34:45.016Z,41.28
2022-10-17T19:37:11.830Z,45.70
2022-10-17T19:39:38.805Z,40.60
2022-10-17T19:42:06.934Z,35.95
2022-10-17T19:44:34.906Z,41.65
2022-10-17T19:47:01.719Z,40.28
2022-10-17T19:49:28.643Z,37.70
2022-10-17T19:51:55.502Z,38.40
2022-10-17T19:54:22.379Z,40.63
2022-10-17T19:56:49.336Z,44.95
2022-10-17T19:59:17.375Z,37.33
2022-10-17T20:01:44.924Z,36.38
2022-10-17T20:04:12.638Z,37.67
2022-10-17T20:06:40.628Z,38.13
2022-10-17T20:09:09.892Z,38.80
2022-10-17T20:11:39.363Z,46.67
2022-10-17T20:14:06.784Z,42.83
2022-10-17T20:16:35.807Z,42.58
2022-10-17T20:19:10.015Z,47.60
2022-10-17T20:21:39.588Z,47.53
2022-10-17T20:24:08.632Z,43.30
2022-10-17T20:26:38.585Z,45.20
2022-10-17T20:29:18.516Z,48.92
2022-10-17T20:31:46.530Z,48.25
2022-10-17T20:34:15.841Z,43.22
2022-10-17T20:39:11.837Z,49.88
2022-10-17T20:41:39.145Z,46.92
2022-10-17T20:44:07.020Z,45.28
2022-10-17T20:46:39.820Z,46.38
2022-10-17T20:49:11.157Z,28.25
2022-10-17T20:51:37.987Z,48.08
2022-10-17T20:54:04.969Z,45.60
2022-10-17T20:56:33.393Z,49.75
2022-10-17T20:59:03.603Z,47.13
2022-10-17T21:01:34.298Z,37.50
2022-10-17T21:04:16.223Z,45.10
2022-10-17T21:06:48.744Z,51.67
2022-10-17T21:09:15.588Z,54.53
2022-10-17T21:11:43.180Z,46.03
2022-10-17T21:14:11.209Z,33.90
2022-10-17T21:16:39.617Z,48.92
2022-10-17T21:19:06.659Z,50.63
2022-10-17T21:21:35.731Z,51.03
2022-10-17T21:24:05.518Z,44.47
2022-10-17T21:26:33.941Z,51.67
2022-10-17T21:29:05.457Z,61.10
2022-10-17T21:31:34.451Z,52.42
2022-10-17T21:34:06.051Z,23.55
2022-10-17T21:36:32.916Z,49.53
2022-10-17T21:38:59.757Z,40.90
2022-10-17T21:41:28.425Z,78.03
2022-10-17T21:44:00.341Z,68.82
2022-10-17T21:46:29.800Z,32.50
2022-10-17T21:48:58.242Z,67.63
2022-10-17T21:51:26.407Z,75.93
2022-10-17T21:53:54.985Z,53.00
2022-10-17T21:56:28.138Z,67.78
2022-10-17T21:58:55.419Z,71.10
2022-10-17T22:01:25.914Z,64.78
2022-10-17T22:03:55.252Z,76.55
2022-10-17T22:09:34.189Z,72.57
2022-10-17T22:12:01.024Z,68.90
2022-10-17T22:14:28.458Z,76.57
2022-10-17T22:16:58.594Z,47.25
2022-10-17T22:19:27.244Z,76.40
2022-10-17T22:21:55.000Z,52.97
2022-10-17T22:24:23.165Z,71.43
2022-10-17T22:26:50.488Z,71.23
2022-10-17T22:29:17.652Z,72.55
2022-10-17T22:31:44.836Z,71.22
2022-10-17T22:34:14.176Z,67.15
2022-10-17T22:39:08.001Z,72.40
2022-10-17T22:41:34.844Z,66.40
2022-10-17T22:44:01.836Z,74.55
2022-10-17T22:46:29.238Z,69.68
2022-10-17T22:48:56.084Z,35.78
2022-10-17T22:53:51.179Z,55.53
2022-10-17T22:56:20.916Z,65.55
2022-10-17T22:58:48.001Z,41.10
2022-10-17T23:01:21.719Z,61.55
2022-10-17T23:03:49.367Z,75.45
2022-10-17T23:06:16.517Z,37.38
2022-10-17T23:08:43.382Z,45.42
2022-10-17T23:11:10.687Z,29.20
2022-10-17T23:13:38.069Z,21.30
2022-10-17T23:16:05.341Z,27.58
2022-10-17T23:18:32.386Z,31.77
2022-10-17T23:20:59.280Z,62.95
2022-10-17T23:23:26.181Z,25.63
2022-10-17T23:25:53.030Z,41.25
2022-10-17T23:28:19.852Z,50.70
2022-10-17T23:30:46.776Z,48.83
2022-10-17T23:33:14.181Z,56.65
2022-10-17T23:35:41.826Z,29.30
2022-10-17T23:38:09.051Z,26.23
2022-10-17T23:40:35.933Z,25.05
2022-10-17T23:43:03.851Z,26.55
2022-10-17T23:45:34.641Z,44.85
2022-10-17T23:48:03.102Z,78.43
2022-10-17T23:50:29.946Z,79.55
2022-10-17T23:52:56.806Z,71.88
2022-10-17T23:55:23.608Z,69.82
2022-10-17T23:57:50.398Z,52.25
